sensor_id;sensor_type;location;lat;lon;timestamp;P1;durP1;ratioP1;P2;durP2;ratioP2
47153;SDS011;32907;41.412;2.164;2023-07-02T00:01:59;9.02;;;7.55;;
47153;SDS011;32907;41.412;2.164;2023-07-02T00:04:27;10.57;;;7.55;;
47153;SDS011;32907;41.412;2.164;2023-07-02T00:06:55;7.35;;;5.35;;
47153;SDS011;32907;41.412;2.164;2023-07-02T00:09:23;7.68;;;4.75;;
47153;SDS011;32907;41.412;2.164;2023-07-02T00:11:51;6.63;;;4.15;;
47153;SDS011;32907;41.412;2.164;2023-07-02T00:14:19;5.68;;;3.88;;
47153;SDS011;32907;41.412;2.164;2023-07-02T00:16:47;4.93;;;3.95;;
47153;SDS011;32907;41.412;2.164;2023-07-02T00:19:15;5.43;;;3.47;;
47153;SDS011;32907;41.412;2.164;2023-07-02T00:21:43;5.53;;;3.47;;
47153;SDS011;32907;41.412;2.164;2023-07-02T00:24:11;4.70;;;3.47;;
47153;SDS011;32907;41.412;2.164;2023-07-02T00:26:39;5.28;;;3.58;;
47153;SDS011;32907;41.412;2.164;2023-07-02T00:29:11;5.43;;;3.28;;
47153;SDS011;32907;41.412;2.164;2023-07-02T00:31:39;5.38;;;3.70;;
47153;SDS011;32907;41.412;2.164;2023-07-02T00:34:09;4.78;;;3.45;;
47153;SDS011;32907;41.412;2.164;2023-07-02T00:36:38;4.90;;;3.38;;
47153;SDS011;32907;41.412;2.164;2023-07-02T00:39:06;5.55;;;3.17;;
47153;SDS011;32907;41.412;2.164;2023-07-02T00:41:36;4.88;;;3.22;;
47153;SDS011;32907;41.412;2.164;2023-07-02T00:44:05;5.68;;;3.42;;
47153;SDS011;32907;41.412;2.164;2023-07-02T00:46:33;6.15;;;3.50;;
47153;SDS011;32907;41.412;2.164;2023-07-02T00:49:02;4.90;;;3.40;;
47153;SDS011;32907;41.412;2.164;2023-07-02T00:51:32;4.72;;;3.20;;
47153;SDS011;32907;41.412;2.164;2023-07-02T00:54:01;5.72;;;3.47;;
47153;SDS011;32907;41.412;2.164;2023-07-02T00:56:29;4.78;;;3.50;;
47153;SDS011;32907;41.412;2.164;2023-07-02T00:58:58;6.35;;;3.72;;
47153;SDS011;32907;41.412;2.164;2023-07-02T01:01:27;6.85;;;3.60;;
47153;SDS011;32907;41.412;2.164;2023-07-02T01:04:03;4.50;;;3.50;;
47153;SDS011;32907;41.412;2.164;2023-07-02T01:06:32;6.07;;;3.92;;
47153;SDS011;32907;41.412;2.164;2023-07-02T01:09:04;5.68;;;3.65;;
47153;SDS011;32907;41.412;2.164;2023-07-02T01:11:40;6.85;;;3.92;;
47153;SDS011;32907;41.412;2.164;2023-07-02T01:16:46;4.85;;;3.55;;
47153;SDS011;32907;41.412;2.164;2023-07-02T01:19:16;8.35;;;3.72;;
47153;SDS011;32907;41.412;2.164;2023-07-02T01:21:48;5.00;;;3.83;;
47153;SDS011;32907;41.412;2.164;2023-07-02T01:24:18;5.38;;;3.80;;
47153;SDS011;32907;41.412;2.164;2023-07-02T01:26:50;5.13;;;3.72;;
47153;SDS011;32907;41.412;2.164;2023-07-02T01:29:19;5.63;;;4.15;;
47153;SDS011;32907;41.412;2.164;2023-07-02T01:31:48;5.35;;;3.83;;
47153;SDS011;32907;41.412;2.164;2023-07-02T01:34:16;4.57;;;3.85;;
47153;SDS011;32907;41.412;2.164;2023-07-02T01:36:44;6.18;;;4.03;;
47153;SDS011;32907;41.412;2.164;2023-07-02T01:39:12;6.57;;;4.32;;
47153;SDS011;32907;41.412;2.164;2023-07-02T01:41:45;5.85;;;4.00;;
47153;SDS011;32907;41.412;2.164;2023-07-02T01:44:17;6.10;;;3.80;;
47153;SDS011;32907;41.412;2.164;2023-07-02T01:46:49;6.28;;;4.30;;
47153;SDS011;32907;41.412;2.164;2023-07-02T01:49:20;6.53;;;4.30;;
47153;SDS011;32907;41.412;2.164;2023-07-02T01:51:54;6.10;;;3.78;;
47153;SDS011;32907;41.412;2.164;2023-07-02T01:54:24;5.53;;;3.73;;
47153;SDS011;32907;41.412;2.164;2023-07-02T01:56:55;4.95;;;3.53;;
47153;SDS011;32907;41.412;2.164;2023-07-02T01:59:23;5.78;;;3.72;;
47153;SDS011;32907;41.412;2.164;2023-07-02T02:01:52;4.80;;;3.53;;
47153;SDS011;32907;41.412;2.164;2023-07-02T02:04:20;5.28;;;4.18;;
47153;SDS011;32907;41.412;2.164;2023-07-02T02:06:48;5.10;;;3.72;;
47153;SDS011;32907;41.412;2.164;2023-07-02T02:09:16;6.05;;;3.75;;
47153;SDS011;32907;41.412;2.164;2023-07-02T02:11:47;6.15;;;3.92;;
47153;SDS011;32907;41.412;2.164;2023-07-02T02:14:16;6.47;;;3.97;;
47153;SDS011;32907;41.412;2.164;2023-07-02T02:16:47;7.43;;;4.00;;
47153;SDS011;32907;41.412;2.164;2023-07-02T02:19:17;4.38;;;3.47;;
47153;SDS011;32907;41.412;2.164;2023-07-02T02:21:45;5.57;;;3.58;;
47153;SDS011;32907;41.412;2.164;2023-07-02T02:24:13;8.77;;;5.25;;
47153;SDS011;32907;41.412;2.164;2023-07-02T02:26:42;7.35;;;4.75;;
47153;SDS011;32907;41.412;2.164;2023-07-02T02:29:10;6.97;;;4.60;;
47153;SDS011;32907;41.412;2.164;2023-07-02T02:31:38;5.28;;;4.03;;
47153;SDS011;32907;41.412;2.164;2023-07-02T02:34:07;6.45;;;3.97;;
47153;SDS011;32907;41.412;2.164;2023-07-02T02:36:36;7.65;;;4.15;;
47153;SDS011;32907;41.412;2.164;2023-07-02T02:39:04;6.10;;;3.65;;
47153;SDS011;32907;41.412;2.164;2023-07-02T02:41:32;8.02;;;4.07;;
47153;SDS011;32907;41.412;2.164;2023-07-02T02:44:00;6.97;;;3.72;;
47153;SDS011;32907;41.412;2.164;2023-07-02T02:46:29;8.02;;;3.88;;
47153;SDS011;32907;41.412;2.164;2023-07-02T02:48:57;4.80;;;3.47;;
47153;SDS011;32907;41.412;2.164;2023-07-02T02:51:27;4.60;;;3.40;;
47153;SDS011;32907;41.412;2.164;2023-07-02T02:53:55;6.03;;;3.38;;
47153;SDS011;32907;41.412;2.164;2023-07-02T02:56:23;5.05;;;3.28;;
47153;SDS011;32907;41.412;2.164;2023-07-02T02:58:51;5.10;;;3.40;;
47153;SDS011;32907;41.412;2.164;2023-07-02T03:01:22;4.07;;;3.00;;
47153;SDS011;32907;41.412;2.164;2023-07-02T03:03:50;6.10;;;3.50;;
47153;SDS011;32907;41.412;2.164;2023-07-02T03:06:18;4.40;;;3.33;;
47153;SDS011;32907;41.412;2.164;2023-07-02T03:08:46;5.15;;;3.33;;
47153;SDS011;32907;41.412;2.164;2023-07-02T03:11:14;5.60;;;3.35;;
47153;SDS011;32907;41.412;2.164;2023-07-02T03:13:42;4.63;;;3.15;;
47153;SDS011;32907;41.412;2.164;2023-07-02T03:16:10;5.22;;;3.42;;
47153;SDS011;32907;41.412;2.164;2023-07-02T03:18:38;7.22;;;3.42;;
47153;SDS011;32907;41.412;2.164;2023-07-02T03:21:08;5.55;;;3.40;;
47153;SDS011;32907;41.412;2.164;2023-07-02T03:23:37;4.35;;;2.85;;
47153;SDS011;32907;41.412;2.164;2023-07-02T03:26:05;4.45;;;3.20;;
47153;SDS011;32907;41.412;2.164;2023-07-02T03:28:33;6.47;;;3.50;;
47153;SDS011;32907;41.412;2.164;2023-07-02T03:31:03;4.88;;;3.13;;
47153;SDS011;32907;41.412;2.164;2023-07-02T03:33:33;4.47;;;3.10;;
47153;SDS011;32907;41.412;2.164;2023-07-02T03:36:01;4.20;;;3.00;;
47153;SDS011;32907;41.412;2.164;2023-07-02T03:38:30;5.57;;;3.40;;
47153;SDS011;32907;41.412;2.164;2023-07-02T03:41:00;5.57;;;3.70;;
47153;SDS011;32907;41.412;2.164;2023-07-02T03:43:28;4.30;;;3.28;;
47153;SDS011;32907;41.412;2.164;2023-07-02T03:45:57;6.50;;;3.78;;
47153;SDS011;32907;41.412;2.164;2023-07-02T03:48:25;6.25;;;3.60;;
47153;SDS011;32907;41.412;2.164;2023-07-02T03:50:54;5.20;;;3.30;;
47153;SDS011;32907;41.412;2.164;2023-07-02T03:53:22;6.03;;;3.45;;
47153;SDS011;32907;41.412;2.164;2023-07-02T03:55:49;4.70;;;3.63;;
47153;SDS011;32907;41.412;2.164;2023-07-02T03:58:17;5.30;;;3.75;;
47153;SDS011;32907;41.412;2.164;2023-07-02T04:00:45;5.32;;;3.40;;
47153;SDS011;32907;41.412;2.164;2023-07-02T04:03:17;4.90;;;3.58;;
47153;SDS011;32907;41.412;2.164;2023-07-02T04:05:46;6.05;;;3.72;;
47153;SDS011;32907;41.412;2.164;2023-07-02T04:08:14;5.35;;;3.72;;
47153;SDS011;32907;41.412;2.164;2023-07-02T04:10:43;5.60;;;3.63;;
47153;SDS011;32907;41.412;2.164;2023-07-02T04:13:12;5.40;;;3.75;;
47153;SDS011;32907;41.412;2.164;2023-07-02T04:15:41;4.32;;;3.50;;
47153;SDS011;32907;41.412;2.164;2023-07-02T04:18:09;6.75;;;3.78;;
47153;SDS011;32907;41.412;2.164;2023-07-02T04:20:37;4.97;;;3.40;;
47153;SDS011;32907;41.412;2.164;2023-07-02T04:23:06;6.03;;;3.45;;
47153;SDS011;32907;41.412;2.164;2023-07-02T04:25:34;5.63;;;3.55;;
47153;SDS011;32907;41.412;2.164;2023-07-02T04:28:22;5.07;;;3.47;;
47153;SDS011;32907;41.412;2.164;2023-07-02T04:30:50;5.10;;;3.10;;
47153;SDS011;32907;41.412;2.164;2023-07-02T04:33:22;7.03;;;3.75;;
47153;SDS011;32907;41.412;2.164;2023-07-02T04:35:50;5.15;;;3.40;;
47153;SDS011;32907;41.412;2.164;2023-07-02T04:38:17;4.40;;;3.13;;
47153;SDS011;32907;41.412;2.164;2023-07-02T04:40:46;4.57;;;3.33;;
47153;SDS011;32907;41.412;2.164;2023-07-02T04:43:14;6.30;;;3.78;;
47153;SDS011;32907;41.412;2.164;2023-07-02T04:45:48;4.55;;;3.45;;
47153;SDS011;32907;41.412;2.164;2023-07-02T04:48:19;5.78;;;3.80;;
47153;SDS011;32907;41.412;2.164;2023-07-02T04:50:48;4.22;;;3.00;;
47153;SDS011;32907;41.412;2.164;2023-07-02T04:53:16;5.57;;;3.70;;
47153;SDS011;32907;41.412;2.164;2023-07-02T04:55:44;5.35;;;3.33;;
47153;SDS011;32907;41.412;2.164;2023-07-02T04:58:12;4.45;;;3.65;;
47153;SDS011;32907;41.412;2.164;2023-07-02T05:00:40;5.40;;;3.92;;
47153;SDS011;32907;41.412;2.164;2023-07-02T05:03:09;6.75;;;3.75;;
47153;SDS011;32907;41.412;2.164;2023-07-02T05:05:37;9.48;;;3.63;;
47153;SDS011;32907;41.412;2.164;2023-07-02T05:08:05;10.50;;;3.70;;
47153;SDS011;32907;41.412;2.164;2023-07-02T05:10:33;7.28;;;3.70;;
47153;SDS011;32907;41.412;2.164;2023-07-02T05:13:01;4.70;;;3.30;;
47153;SDS011;32907;41.412;2.164;2023-07-02T05:15:32;5.72;;;3.80;;
47153;SDS011;32907;41.412;2.164;2023-07-02T05:18:01;4.90;;;3.47;;
47153;SDS011;32907;41.412;2.164;2023-07-02T05:20:29;4.43;;;3.50;;
47153;SDS011;32907;41.412;2.164;2023-07-02T05:22:56;5.70;;;3.50;;
47153;SDS011;32907;41.412;2.164;2023-07-02T05:25:25;5.15;;;3.75;;
47153;SDS011;32907;41.412;2.164;2023-07-02T05:27:53;5.93;;;3.53;;
47153;SDS011;32907;41.412;2.164;2023-07-02T05:30:21;4.30;;;2.80;;
47153;SDS011;32907;41.412;2.164;2023-07-02T05:32:54;5.05;;;2.38;;
47153;SDS011;32907;41.412;2.164;2023-07-02T05:35:22;3.05;;;1.60;;
47153;SDS011;32907;41.412;2.164;2023-07-02T05:37:50;3.83;;;1.92;;
47153;SDS011;32907;41.412;2.164;2023-07-02T05:40:18;6.38;;;3.05;;
47153;SDS011;32907;41.412;2.164;2023-07-02T05:42:46;3.95;;;3.00;;
47153;SDS011;32907;41.412;2.164;2023-07-02T05:45:14;6.10;;;2.83;;
47153;SDS011;32907;41.412;2.164;2023-07-02T05:47:42;5.38;;;3.15;;
47153;SDS011;32907;41.412;2.164;2023-07-02T05:50:10;7.20;;;3.35;;
47153;SDS011;32907;41.412;2.164;2023-07-02T05:52:38;7.35;;;3.88;;
47153;SDS011;32907;41.412;2.164;2023-07-02T05:55:07;6.25;;;4.10;;
47153;SDS011;32907;41.412;2.164;2023-07-02T05:57:38;6.22;;;4.22;;
47153;SDS011;32907;41.412;2.164;2023-07-02T06:00:06;6.65;;;4.07;;
47153;SDS011;32907;41.412;2.164;2023-07-02T06:02:42;7.65;;;4.40;;
47153;SDS011;32907;41.412;2.164;2023-07-02T06:05:13;9.00;;;4.15;;
47153;SDS011;32907;41.412;2.164;2023-07-02T06:07:41;7.50;;;4.10;;
47153;SDS011;32907;41.412;2.164;2023-07-02T06:10:08;6.97;;;4.30;;
47153;SDS011;32907;41.412;2.164;2023-07-02T06:12:36;6.03;;;3.85;;
47153;SDS011;32907;41.412;2.164;2023-07-02T06:15:05;6.28;;;3.80;;
47153;SDS011;32907;41.412;2.164;2023-07-02T06:17:34;7.70;;;4.20;;
47153;SDS011;32907;41.412;2.164;2023-07-02T06:20:03;8.93;;;4.10;;
47153;SDS011;32907;41.412;2.164;2023-07-02T06:22:33;8.05;;;4.10;;
47153;SDS011;32907;41.412;2.164;2023-07-02T06:25:01;5.38;;;3.78;;
47153;SDS011;32907;41.412;2.164;2023-07-02T06:27:32;6.30;;;4.00;;
47153;SDS011;32907;41.412;2.164;2023-07-02T06:29:59;6.25;;;3.88;;
47153;SDS011;32907;41.412;2.164;2023-07-02T06:32:28;6.72;;;3.60;;
47153;SDS011;32907;41.412;2.164;2023-07-02T06:34:56;4.97;;;3.60;;
47153;SDS011;32907;41.412;2.164;2023-07-02T06:37:23;6.15;;;3.72;;
47153;SDS011;32907;41.412;2.164;2023-07-02T06:39:51;6.50;;;3.65;;
47153;SDS011;32907;41.412;2.164;2023-07-02T06:42:19;6.75;;;3.45;;
47153;SDS011;32907;41.412;2.164;2023-07-02T06:44:47;5.72;;;4.10;;
47153;SDS011;32907;41.412;2.164;2023-07-02T06:47:15;10.95;;;4.05;;
47153;SDS011;32907;41.412;2.164;2023-07-02T06:49:48;11.07;;;4.05;;
47153;SDS011;32907;41.412;2.164;2023-07-02T06:52:15;7.13;;;4.18;;
47153;SDS011;32907;41.412;2.164;2023-07-02T06:54:43;9.15;;;4.47;;
47153;SDS011;32907;41.412;2.164;2023-07-02T06:57:12;7.63;;;3.95;;
47153;SDS011;32907;41.412;2.164;2023-07-02T06:59:40;9.82;;;3.53;;
47153;SDS011;32907;41.412;2.164;2023-07-02T07:02:10;5.32;;;3.42;;
47153;SDS011;32907;41.412;2.164;2023-07-02T07:04:38;4.90;;;3.33;;
47153;SDS011;32907;41.412;2.164;2023-07-02T07:07:06;5.78;;;3.35;;
47153;SDS011;32907;41.412;2.164;2023-07-02T07:09:35;8.38;;;3.22;;
47153;SDS011;32907;41.412;2.164;2023-07-02T07:12:02;8.68;;;3.40;;
47153;SDS011;32907;41.412;2.164;2023-07-02T07:14:32;9.07;;;3.45;;
47153;SDS011;32907;41.412;2.164;2023-07-02T07:17:00;7.55;;;3.65;;
47153;SDS011;32907;41.412;2.164;2023-07-02T07:19:28;5.80;;;3.25;;
47153;SDS011;32907;41.412;2.164;2023-07-02T07:21:56;7.68;;;4.00;;
47153;SDS011;32907;41.412;2.164;2023-07-02T07:24:25;5.90;;;3.53;;
47153;SDS011;32907;41.412;2.164;2023-07-02T07:26:53;6.60;;;3.70;;
47153;SDS011;32907;41.412;2.164;2023-07-02T07:29:21;5.72;;;3.67;;
47153;SDS011;32907;41.412;2.164;2023-07-02T07:31:49;6.18;;;3.33;;
47153;SDS011;32907;41.412;2.164;2023-07-02T07:34:17;9.73;;;3.30;;
47153;SDS011;32907;41.412;2.164;2023-07-02T07:36:45;4.78;;;3.10;;
47153;SDS011;32907;41.412;2.164;2023-07-02T07:39:13;7.10;;;3.38;;
47153;SDS011;32907;41.412;2.164;2023-07-02T07:41:46;6.50;;;3.30;;
47153;SDS011;32907;41.412;2.164;2023-07-02T07:44:15;4.47;;;2.90;;
47153;SDS011;32907;41.412;2.164;2023-07-02T07:46:43;5.20;;;3.15;;
47153;SDS011;32907;41.412;2.164;2023-07-02T07:49:12;5.65;;;3.13;;
47153;SDS011;32907;41.412;2.164;2023-07-02T07:51:40;4.93;;;3.10;;
47153;SDS011;32907;41.412;2.164;2023-07-02T07:54:09;4.47;;;3.00;;
47153;SDS011;32907;41.412;2.164;2023-07-02T07:56:37;4.78;;;2.90;;
47153;SDS011;32907;41.412;2.164;2023-07-02T07:59:05;4.53;;;2.55;;
47153;SDS011;32907;41.412;2.164;2023-07-02T08:01:33;7.50;;;3.25;;
47153;SDS011;32907;41.412;2.164;2023-07-02T08:04:01;6.35;;;4.53;;
47153;SDS011;32907;41.412;2.164;2023-07-02T08:06:30;6.10;;;4.00;;
47153;SDS011;32907;41.412;2.164;2023-07-02T08:08:59;5.32;;;4.03;;
47153;SDS011;32907;41.412;2.164;2023-07-02T08:11:27;5.05;;;3.42;;
47153;SDS011;32907;41.412;2.164;2023-07-02T08:13:55;5.03;;;3.42;;
47153;SDS011;32907;41.412;2.164;2023-07-02T08:16:23;5.25;;;3.75;;
47153;SDS011;32907;41.412;2.164;2023-07-02T08:18:52;6.90;;;3.95;;
47153;SDS011;32907;41.412;2.164;2023-07-02T08:21:20;6.40;;;3.97;;
47153;SDS011;32907;41.412;2.164;2023-07-02T08:23:48;6.10;;;3.53;;
47153;SDS011;32907;41.412;2.164;2023-07-02T08:26:15;8.10;;;4.13;;
47153;SDS011;32907;41.412;2.164;2023-07-02T08:28:43;6.10;;;4.00;;
47153;SDS011;32907;41.412;2.164;2023-07-02T08:31:11;6.88;;;4.22;;
47153;SDS011;32907;41.412;2.164;2023-07-02T08:33:40;5.32;;;3.92;;
47153;SDS011;32907;41.412;2.164;2023-07-02T08:36:08;7.03;;;4.22;;
47153;SDS011;32907;41.412;2.164;2023-07-02T08:38:36;7.20;;;5.10;;
47153;SDS011;32907;41.412;2.164;2023-07-02T08:41:07;7.60;;;4.78;;
47153;SDS011;32907;41.412;2.164;2023-07-02T08:43:43;6.18;;;4.25;;
47153;SDS011;32907;41.412;2.164;2023-07-02T08:46:11;6.90;;;4.43;;
47153;SDS011;32907;41.412;2.164;2023-07-02T08:48:39;6.68;;;4.30;;
47153;SDS011;32907;41.412;2.164;2023-07-02T08:51:08;5.45;;;4.18;;
47153;SDS011;32907;41.412;2.164;2023-07-02T08:53:36;4.95;;;3.60;;
47153;SDS011;32907;41.412;2.164;2023-07-02T08:56:04;5.97;;;3.50;;
47153;SDS011;32907;41.412;2.164;2023-07-02T08:58:32;5.30;;;3.95;;
47153;SDS011;32907;41.412;2.164;2023-07-02T09:01:10;5.78;;;3.53;;
47153;SDS011;32907;41.412;2.164;2023-07-02T09:03:39;6.50;;;3.90;;
47153;SDS011;32907;41.412;2.164;2023-07-02T09:06:09;7.38;;;3.63;;
47153;SDS011;32907;41.412;2.164;2023-07-02T09:08:40;5.32;;;3.83;;
47153;SDS011;32907;41.412;2.164;2023-07-02T09:11:12;5.50;;;3.80;;
47153;SDS011;32907;41.412;2.164;2023-07-02T09:14:27;8.70;;;3.95;;
47153;SDS011;32907;41.412;2.164;2023-07-02T09:20:05;11.40;;;5.95;;
47153;SDS011;32907;41.412;2.164;2023-07-02T09:22:36;12.52;;;5.78;;
47153;SDS011;32907;41.412;2.164;2023-07-02T09:25:06;12.50;;;4.82;;
47153;SDS011;32907;41.412;2.164;2023-07-02T09:27:36;7.65;;;4.55;;
47153;SDS011;32907;41.412;2.164;2023-07-02T09:30:10;10.85;;;4.35;;
47153;SDS011;32907;41.412;2.164;2023-07-02T09:32:45;8.30;;;4.05;;
47153;SDS011;32907;41.412;2.164;2023-07-02T09:35:14;10.75;;;4.70;;
47153;SDS011;32907;41.412;2.164;2023-07-02T09:37:42;11.85;;;5.13;;
47153;SDS011;32907;41.412;2.164;2023-07-02T09:40:11;5.55;;;3.55;;
47153;SDS011;32907;41.412;2.164;2023-07-02T09:42:40;5.00;;;3.13;;
47153;SDS011;32907;41.412;2.164;2023-07-02T09:45:16;6.07;;;3.42;;
47153;SDS011;32907;41.412;2.164;2023-07-02T09:47:46;8.20;;;4.55;;
47153;SDS011;32907;41.412;2.164;2023-07-02T09:50:17;7.88;;;4.78;;
47153;SDS011;32907;41.412;2.164;2023-07-02T09:52:47;25.05;;;10.43;;
47153;SDS011;32907;41.412;2.164;2023-07-02T09:55:16;16.13;;;7.07;;
47153;SDS011;32907;41.412;2.164;2023-07-02T09:57:45;8.73;;;5.13;;
47153;SDS011;32907;41.412;2.164;2023-07-02T10:00:14;11.60;;;5.15;;
47153;SDS011;32907;41.412;2.164;2023-07-02T10:02:47;10.45;;;6.05;;
47153;SDS011;32907;41.412;2.164;2023-07-02T10:08:51;10.10;;;4.90;;
47153;SDS011;32907;41.412;2.164;2023-07-02T10:11:20;8.95;;;4.75;;
47153;SDS011;32907;41.412;2.164;2023-07-02T10:14:00;8.77;;;4.28;;
47153;SDS011;32907;41.412;2.164;2023-07-02T10:16:28;7.05;;;3.78;;
47153;SDS011;32907;41.412;2.164;2023-07-02T10:19:09;9.90;;;7.22;;
47153;SDS011;32907;41.412;2.164;2023-07-02T10:21:38;9.07;;;5.22;;
47153;SDS011;32907;41.412;2.164;2023-07-02T10:24:14;8.45;;;5.30;;
47153;SDS011;32907;41.412;2.164;2023-07-02T10:26:54;20.85;;;7.55;;
47153;SDS011;32907;41.412;2.164;2023-07-02T10:29:24;18.13;;;6.40;;
47153;SDS011;32907;41.412;2.164;2023-07-02T10:31:54;8.85;;;4.68;;
47153;SDS011;32907;41.412;2.164;2023-07-02T10:34:36;5.38;;;3.40;;
47153;SDS011;32907;41.412;2.164;2023-07-02T10:37:04;15.25;;;12.55;;
47153;SDS011;32907;41.412;2.164;2023-07-02T10:39:32;19.52;;;16.50;;
47153;SDS011;32907;41.412;2.164;2023-07-02T10:42:06;16.80;;;14.90;;
47153;SDS011;32907;41.412;2.164;2023-07-02T10:44:51;13.80;;;9.73;;
47153;SDS011;32907;41.412;2.164;2023-07-02T10:47:20;11.40;;;9.68;;
47153;SDS011;32907;41.412;2.164;2023-07-02T10:49:48;9.60;;;7.65;;
47153;SDS011;32907;41.412;2.164;2023-07-02T10:52:16;8.73;;;6.53;;
47153;SDS011;32907;41.412;2.164;2023-07-02T10:54:44;8.73;;;5.97;;
47153;SDS011;32907;41.412;2.164;2023-07-02T10:57:13;8.60;;;5.13;;
47153;SDS011;32907;41.412;2.164;2023-07-02T10:59:44;6.60;;;4.35;;
47153;SDS011;32907;41.412;2.164;2023-07-02T11:02:12;7.25;;;5.03;;
47153;SDS011;32907;41.412;2.164;2023-07-02T11:04:40;9.13;;;4.97;;
47153;SDS011;32907;41.412;2.164;2023-07-02T11:07:09;5.55;;;3.83;;
47153;SDS011;32907;41.412;2.164;2023-07-02T11:09:39;5.32;;;4.30;;
47153;SDS011;32907;41.412;2.164;2023-07-02T11:12:07;8.77;;;4.40;;
47153;SDS011;32907;41.412;2.164;2023-07-02T11:14:36;5.95;;;3.53;;
47153;SDS011;32907;41.412;2.164;2023-07-02T11:17:04;5.85;;;3.35;;
47153;SDS011;32907;41.412;2.164;2023-07-02T11:19:34;5.88;;;3.05;;
47153;SDS011;32907;41.412;2.164;2023-07-02T11:22:04;4.95;;;3.15;;
47153;SDS011;32907;41.412;2.164;2023-07-02T11:24:33;5.53;;;3.83;;
47153;SDS011;32907;41.412;2.164;2023-07-02T11:27:03;6.20;;;4.43;;
47153;SDS011;32907;41.412;2.164;2023-07-02T11:29:33;4.35;;;2.72;;
47153;SDS011;32907;41.412;2.164;2023-07-02T11:32:05;7.90;;;3.67;;
47153;SDS011;32907;41.412;2.164;2023-07-02T11:34:39;8.48;;;4.95;;
47153;SDS011;32907;41.412;2.164;2023-07-02T11:37:07;12.05;;;4.95;;
47153;SDS011;32907;41.412;2.164;2023-07-02T11:39:36;6.68;;;4.13;;
47153;SDS011;32907;41.412;2.164;2023-07-02T11:42:06;6.68;;;3.40;;
47153;SDS011;32907;41.412;2.164;2023-07-02T11:44:34;8.18;;;4.40;;
47153;SDS011;32907;41.412;2.164;2023-07-02T11:47:03;7.57;;;4.85;;
47153;SDS011;32907;41.412;2.164;2023-07-02T11:49:32;6.15;;;4.40;;
47153;SDS011;32907;41.412;2.164;2023-07-02T11:52:00;8.02;;;4.50;;
47153;SDS011;32907;41.412;2.164;2023-07-02T11:54:28;6.40;;;4.20;;
47153;SDS011;32907;41.412;2.164;2023-07-02T11:56:56;5.78;;;3.80;;
47153;SDS011;32907;41.412;2.164;2023-07-02T11:59:25;5.95;;;3.20;;
47153;SDS011;32907;41.412;2.164;2023-07-02T12:01:54;6.53;;;2.28;;
47153;SDS011;32907;41.412;2.164;2023-07-02T12:04:22;7.15;;;3.00;;
47153;SDS011;32907;41.412;2.164;2023-07-02T12:06:50;11.68;;;4.18;;
47153;SDS011;32907;41.412;2.164;2023-07-02T12:09:19;6.18;;;3.80;;
47153;SDS011;32907;41.412;2.164;2023-07-02T12:11:46;8.38;;;3.17;;
47153;SDS011;32907;41.412;2.164;2023-07-02T12:14:14;7.18;;;3.28;;
47153;SDS011;32907;41.412;2.164;2023-07-02T12:16:42;5.93;;;3.67;;
47153;SDS011;32907;41.412;2.164;2023-07-02T12:19:11;7.35;;;3.53;;
47153;SDS011;32907;41.412;2.164;2023-07-02T12:21:42;6.30;;;3.20;;
47153;SDS011;32907;41.412;2.164;2023-07-02T12:24:11;6.95;;;4.20;;
47153;SDS011;32907;41.412;2.164;2023-07-02T12:26:39;7.72;;;4.13;;
47153;SDS011;32907;41.412;2.164;2023-07-02T12:29:07;5.30;;;3.30;;
47153;SDS011;32907;41.412;2.164;2023-07-02T12:31:35;6.25;;;3.33;;
47153;SDS011;32907;41.412;2.164;2023-07-02T12:34:03;6.32;;;3.05;;
47153;SDS011;32907;41.412;2.164;2023-07-02T12:36:31;8.43;;;3.03;;
47153;SDS011;32907;41.412;2.164;2023-07-02T12:38:59;7.25;;;3.22;;
47153;SDS011;32907;41.412;2.164;2023-07-02T12:41:26;8.00;;;3.10;;
47153;SDS011;32907;41.412;2.164;2023-07-02T12:43:56;15.70;;;3.95;;
47153;SDS011;32907;41.412;2.164;2023-07-02T12:46:24;7.85;;;3.70;;
47153;SDS011;32907;41.412;2.164;2023-07-02T12:49:01;7.82;;;3.10;;
47153;SDS011;32907;41.412;2.164;2023-07-02T12:51:29;6.35;;;3.38;;
47153;SDS011;32907;41.412;2.164;2023-07-02T12:53:57;6.30;;;2.83;;
47153;SDS011;32907;41.412;2.164;2023-07-02T12:56:25;7.93;;;3.22;;
47153;SDS011;32907;41.412;2.164;2023-07-02T12:58:53;6.60;;;3.15;;
47153;SDS011;32907;41.412;2.164;2023-07-02T13:01:21;14.57;;;7.30;;
47153;SDS011;32907;41.412;2.164;2023-07-02T13:03:49;10.65;;;6.53;;
47153;SDS011;32907;41.412;2.164;2023-07-02T13:06:18;9.90;;;6.18;;
47153;SDS011;32907;41.412;2.164;2023-07-02T13:08:45;11.80;;;5.57;;
47153;SDS011;32907;41.412;2.164;2023-07-02T13:11:13;8.82;;;4.45;;
47153;SDS011;32907;41.412;2.164;2023-07-02T13:13:42;7.70;;;4.40;;
47153;SDS011;32907;41.412;2.164;2023-07-02T13:16:10;11.23;;;6.70;;
47153;SDS011;32907;41.412;2.164;2023-07-02T13:18:38;12.23;;;8.55;;
47153;SDS011;32907;41.412;2.164;2023-07-02T13:21:06;10.55;;;5.93;;
47153;SDS011;32907;41.412;2.164;2023-07-02T13:23:33;9.18;;;5.78;;
47153;SDS011;32907;41.412;2.164;2023-07-02T13:26:01;11.93;;;7.53;;
47153;SDS011;32907;41.412;2.164;2023-07-02T13:28:29;8.93;;;5.07;;
47153;SDS011;32907;41.412;2.164;2023-07-02T13:30:57;7.82;;;4.80;;
47153;SDS011;32907;41.412;2.164;2023-07-02T13:33:25;6.72;;;3.90;;
47153;SDS011;32907;41.412;2.164;2023-07-02T13:35:53;8.48;;;4.20;;
47153;SDS011;32907;41.412;2.164;2023-07-02T13:38:21;6.35;;;3.55;;
47153;SDS011;32907;41.412;2.164;2023-07-02T13:40:49;5.18;;;3.00;;
47153;SDS011;32907;41.412;2.164;2023-07-02T13:43:18;7.20;;;3.38;;
47153;SDS011;32907;41.412;2.164;2023-07-02T13:45:46;7.72;;;3.67;;
47153;SDS011;32907;41.412;2.164;2023-07-02T13:48:14;8.25;;;3.30;;
47153;SDS011;32907;41.412;2.164;2023-07-02T13:50:42;7.28;;;3.63;;
47153;SDS011;32907;41.412;2.164;2023-07-02T13:53:11;9.63;;;3.72;;
47153;SDS011;32907;41.412;2.164;2023-07-02T13:55:39;14.75;;;4.20;;
47153;SDS011;32907;41.412;2.164;2023-07-02T13:58:07;8.48;;;3.38;;
47153;SDS011;32907;41.412;2.164;2023-07-02T14:00:35;7.50;;;3.70;;
47153;SDS011;32907;41.412;2.164;2023-07-02T14:03:03;9.20;;;3.75;;
47153;SDS011;32907;41.412;2.164;2023-07-02T14:05:32;11.45;;;4.18;;
47153;SDS011;32907;41.412;2.164;2023-07-02T14:08:00;6.40;;;3.15;;
47153;SDS011;32907;41.412;2.164;2023-07-02T14:10:28;6.60;;;3.10;;
47153;SDS011;32907;41.412;2.164;2023-07-02T14:12:56;6.55;;;2.58;;
47153;SDS011;32907;41.412;2.164;2023-07-02T14:15:24;8.23;;;3.03;;
47153;SDS011;32907;41.412;2.164;2023-07-02T14:17:53;10.30;;;3.28;;
47153;SDS011;32907;41.412;2.164;2023-07-02T14:20:22;6.00;;;2.83;;
47153;SDS011;32907;41.412;2.164;2023-07-02T14:22:50;14.18;;;2.72;;
47153;SDS011;32907;41.412;2.164;2023-07-02T14:25:18;7.18;;;2.55;;
47153;SDS011;32907;41.412;2.164;2023-07-02T14:28:05;6.53;;;3.00;;
47153;SDS011;32907;41.412;2.164;2023-07-02T14:30:34;6.85;;;2.55;;
47153;SDS011;32907;41.412;2.164;2023-07-02T14:33:02;8.63;;;3.00;;
47153;SDS011;32907;41.412;2.164;2023-07-02T14:35:30;5.85;;;2.55;;
47153;SDS011;32907;41.412;2.164;2023-07-02T14:37:58;9.32;;;4.38;;
47153;SDS011;32907;41.412;2.164;2023-07-02T14:40:26;16.52;;;7.53;;
47153;SDS011;32907;41.412;2.164;2023-07-02T14:42:54;16.45;;;7.60;;
47153;SDS011;32907;41.412;2.164;2023-07-02T14:45:22;14.57;;;6.18;;
47153;SDS011;32907;41.412;2.164;2023-07-02T14:47:50;20.00;;;5.47;;
47153;SDS011;32907;41.412;2.164;2023-07-02T14:50:18;8.25;;;4.25;;
47153;SDS011;32907;41.412;2.164;2023-07-02T14:52:46;9.60;;;3.70;;
47153;SDS011;32907;41.412;2.164;2023-07-02T14:55:14;6.95;;;3.47;;
47153;SDS011;32907;41.412;2.164;2023-07-02T14:57:42;7.93;;;2.78;;
47153;SDS011;32907;41.412;2.164;2023-07-02T15:00:10;7.93;;;3.30;;
47153;SDS011;32907;41.412;2.164;2023-07-02T15:02:38;6.18;;;3.63;;
47153;SDS011;32907;41.412;2.164;2023-07-02T15:05:06;9.63;;;5.22;;
47153;SDS011;32907;41.412;2.164;2023-07-02T15:07:35;5.38;;;2.97;;